sensor_id;sensor_type;location;lat;lon;timestamp;temperature;humidity
46784;DHT22;32544;52.832;13.816;2023-08-08T00:00:18;25.00;48.60
46784;DHT22;32544;52.832;13.816;2023-08-08T00:01:19;25.00;48.60
46784;DHT22;32544;52.832;13.816;2023-08-08T00:02:20;25.00;48.60
46784;DHT22;32544;52.832;13.816;2023-08-08T00:03:20;25.00;48.60
46784;DHT22;32544;52.832;13.816;2023-08-08T00:04:21;25.00;48.60
46784;DHT22;32544;52.832;13.816;2023-08-08T00:05:21;25.00;48.70
46784;DHT22;32544;52.832;13.816;2023-08-08T00:06:22;25.00;48.70
46784;DHT22;32544;52.832;13.816;2023-08-08T00:07:22;25.00;48.60
46784;DHT22;32544;52.832;13.816;2023-08-08T00:08:23;25.00;48.60
46784;DHT22;32544;52.832;13.816;2023-08-08T00:09:24;25.00;48.70
46784;DHT22;32544;52.832;13.816;2023-08-08T00:10:24;25.00;48.60
46784;DHT22;32544;52.832;13.816;2023-08-08T00:11:25;25.00;48.60
46784;DHT22;32544;52.832;13.816;2023-08-08T00:12:26;25.00;48.70
46784;DHT22;32544;52.832;13.816;2023-08-08T00:13:26;25.00;48.70
46784;DHT22;32544;52.832;13.816;2023-08-08T00:14:27;25.00;48.70
46784;DHT22;32544;52.832;13.816;2023-08-08T00:15:27;25.00;48.70
46784;DHT22;32544;52.832;13.816;2023-08-08T00:16:28;25.00;48.70
46784;DHT22;32544;52.832;13.816;2023-08-08T00:17:28;25.00;48.70
46784;DHT22;32544;52.832;13.816;2023-08-08T00:18:29;25.00;48.70
46784;DHT22;32544;52.832;13.816;2023-08-08T00:19:29;25.00;49.30
46784;DHT22;32544;52.832;13.816;2023-08-08T00:20:30;25.00;48.70
46784;DHT22;32544;52.832;13.816;2023-08-08T00:21:31;25.00;48.70
46784;DHT22;32544;52.832;13.816;2023-08-08T00:22:31;25.00;48.70
46784;DHT22;32544;52.832;13.816;2023-08-08T00:23:32;25.00;48.70
46784;DHT22;32544;52.832;13.816;2023-08-08T00:24:32;25.00;48.70
46784;DHT22;32544;52.832;13.816;2023-08-08T00:25:33;25.00;48.70
46784;DHT22;32544;52.832;13.816;2023-08-08T00:26:33;25.00;48.70
46784;DHT22;32544;52.832;13.816;2023-08-08T00:27:34;25.00;48.70
46784;DHT22;32544;52.832;13.816;2023-08-08T00:28:34;25.00;48.70
46784;DHT22;32544;52.832;13.816;2023-08-08T00:29:35;25.00;48.80
46784;DHT22;32544;52.832;13.816;2023-08-08T00:30:35;25.00;48.80
46784;DHT22;32544;52.832;13.816;2023-08-08T00:31:38;25.00;48.80
46784;DHT22;32544;52.832;13.816;2023-08-08T00:32:38;25.00;48.80
46784;DHT22;32544;52.832;13.816;2023-08-08T00:33:39;25.00;48.80
46784;DHT22;32544;52.832;13.816;2023-08-08T00:34:39;25.00;48.80
46784;DHT22;32544;52.832;13.816;2023-08-08T00:35:40;25.00;48.90
46784;DHT22;32544;52.832;13.816;2023-08-08T00:36:41;25.00;48.90
46784;DHT22;32544;52.832;13.816;2023-08-08T00:37:41;25.00;48.90
46784;DHT22;32544;52.832;13.816;2023-08-08T00:38:42;25.00;48.90
46784;DHT22;32544;52.832;13.816;2023-08-08T00:39:42;25.00;48.90
46784;DHT22;32544;52.832;13.816;2023-08-08T00:40:46;25.00;48.90
46784;DHT22;32544;52.832;13.816;2023-08-08T00:41:46;25.00;48.90
46784;DHT22;32544;52.832;13.816;2023-08-08T00:42:48;25.00;48.90
46784;DHT22;32544;52.832;13.816;2023-08-08T00:43:49;25.00;49.00
46784;DHT22;32544;52.832;13.816;2023-08-08T00:44:50;25.00;48.90
46784;DHT22;32544;52.832;13.816;2023-08-08T00:45:51;25.00;48.90
46784;DHT22;32544;52.832;13.816;2023-08-08T00:46:52;25.00;48.90
46784;DHT22;32544;52.832;13.816;2023-08-08T00:47:53;25.00;48.90
46784;DHT22;32544;52.832;13.816;2023-08-08T00:48:53;25.00;48.90
46784;DHT22;32544;52.832;13.816;2023-08-08T00:49:54;25.00;48.90
46784;DHT22;32544;52.832;13.816;2023-08-08T00:50:55;25.00;48.90
46784;DHT22;32544;52.832;13.816;2023-08-08T00:51:55;25.00;49.50
46784;DHT22;32544;52.832;13.816;2023-08-08T00:52:56;25.00;48.80
46784;DHT22;32544;52.832;13.816;2023-08-08T00:53:57;25.00;48.90
46784;DHT22;32544;52.832;13.816;2023-08-08T00:54:57;25.00;48.90
46784;DHT22;32544;52.832;13.816;2023-08-08T00:55:59;25.00;48.80
46784;DHT22;32544;52.832;13.816;2023-08-08T00:57:00;25.00;48.90
46784;DHT22;32544;52.832;13.816;2023-08-08T00:58:00;25.00;48.90
46784;DHT22;32544;52.832;13.816;2023-08-08T00:59:01;25.00;48.90
46784;DHT22;32544;52.832;13.816;2023-08-08T01:00:02;25.00;48.90
46784;DHT22;32544;52.832;13.816;2023-08-08T01:01:04;25.00;48.80
46784;DHT22;32544;52.832;13.816;2023-08-08T01:02:05;25.00;48.80
46784;DHT22;32544;52.832;13.816;2023-08-08T01:03:05;25.00;48.90
46784;DHT22;32544;52.832;13.816;2023-08-08T01:04:06;25.00;48.90
46784;DHT22;32544;52.832;13.816;2023-08-08T01:05:07;25.00;48.80
46784;DHT22;32544;52.832;13.816;2023-08-08T01:08:27;25.00;48.80
46784;DHT22;32544;52.832;13.816;2023-08-08T01:09:32;25.00;48.80
46784;DHT22;32544;52.832;13.816;2023-08-08T01:10:37;24.90;48.80
46784;DHT22;32544;52.832;13.816;2023-08-08T01:11:38;25.00;48.90
46784;DHT22;32544;52.832;13.816;2023-08-08T01:12:40;25.00;48.90
46784;DHT22;32544;52.832;13.816;2023-08-08T01:13:44;25.00;48.90
46784;DHT22;32544;52.832;13.816;2023-08-08T01:14:45;25.00;48.90
46784;DHT22;32544;52.832;13.816;2023-08-08T01:15:46;24.90;48.80
46784;DHT22;32544;52.832;13.816;2023-08-08T01:16:47;25.00;48.90
46784;DHT22;32544;52.832;13.816;2023-08-08T01:17:47;24.90;48.90
46784;DHT22;32544;52.832;13.816;2023-08-08T01:18:48;24.90;49.00
46784;DHT22;32544;52.832;13.816;2023-08-08T01:19:49;25.00;49.00
46784;DHT22;32544;52.832;13.816;2023-08-08T01:20:50;25.00;49.00
46784;DHT22;32544;52.832;13.816;2023-08-08T01:21:52;25.00;49.00
46784;DHT22;32544;52.832;13.816;2023-08-08T01:22:55;25.00;49.00
46784;DHT22;32544;52.832;13.816;2023-08-08T01:24:10;25.00;49.00
46784;DHT22;32544;52.832;13.816;2023-08-08T01:25:11;25.00;49.00
46784;DHT22;32544;52.832;13.816;2023-08-08T01:26:12;25.00;49.00
46784;DHT22;32544;52.832;13.816;2023-08-08T01:27:13;25.00;49.10
46784;DHT22;32544;52.832;13.816;2023-08-08T01:28:13;24.90;49.00
46784;DHT22;32544;52.832;13.816;2023-08-08T01:29:14;25.00;49.10
46784;DHT22;32544;52.832;13.816;2023-08-08T01:30:15;24.90;49.00
46784;DHT22;32544;52.832;13.816;2023-08-08T01:31:15;24.90;49.00
46784;DHT22;32544;52.832;13.816;2023-08-08T01:32:16;25.00;49.10
46784;DHT22;32544;52.832;13.816;2023-08-08T01:33:16;24.90;49.00
46784;DHT22;32544;52.832;13.816;2023-08-08T01:34:17;25.00;49.00
46784;DHT22;32544;52.832;13.816;2023-08-08T01:35:18;24.90;49.00
46784;DHT22;32544;52.832;13.816;2023-08-08T01:36:20;24.90;49.00
46784;DHT22;32544;52.832;13.816;2023-08-08T01:37:24;24.90;49.00
46784;DHT22;32544;52.832;13.816;2023-08-08T01:38:36;25.00;49.10
46784;DHT22;32544;52.832;13.816;2023-08-08T01:39:37;24.90;49.00
46784;DHT22;32544;52.832;13.816;2023-08-08T01:40:38;24.90;49.00
46784;DHT22;32544;52.832;13.816;2023-08-08T01:41:39;24.90;49.00
46784;DHT22;32544;52.832;13.816;2023-08-08T01:42:40;25.00;49.10
46784;DHT22;32544;52.832;13.816;2023-08-08T01:43:41;24.90;49.00
46784;DHT22;32544;52.832;13.816;2023-08-08T01:44:42;24.90;49.10
46784;DHT22;32544;52.832;13.816;2023-08-08T01:45:43;24.90;49.00
46784;DHT22;32544;52.832;13.816;2023-08-08T01:46:44;24.90;49.00
46784;DHT22;32544;52.832;13.816;2023-08-08T01:47:50;24.90;49.00
46784;DHT22;32544;52.832;13.816;2023-08-08T01:48:51;24.90;49.00
46784;DHT22;32544;52.832;13.816;2023-08-08T01:49:52;24.90;49.00
46784;DHT22;32544;52.832;13.816;2023-08-08T01:50:53;24.90;49.00
46784;DHT22;32544;52.832;13.816;2023-08-08T01:51:53;24.90;49.00
46784;DHT22;32544;52.832;13.816;2023-08-08T01:52:54;24.90;49.00
46784;DHT22;32544;52.832;13.816;2023-08-08T01:53:54;24.90;49.00
46784;DHT22;32544;52.832;13.816;2023-08-08T01:54:55;24.90;49.00
46784;DHT22;32544;52.832;13.816;2023-08-08T01:55:55;24.90;49.10
46784;DHT22;32544;52.832;13.816;2023-08-08T01:56:56;24.90;49.00
46784;DHT22;32544;52.832;13.816;2023-08-08T01:57:57;24.90;49.00
46784;DHT22;32544;52.832;13.816;2023-08-08T01:58:58;24.90;49.00
46784;DHT22;32544;52.832;13.816;2023-08-08T01:59:58;24.90;49.00
46784;DHT22;32544;52.832;13.816;2023-08-08T02:00:59;24.90;49.00
46784;DHT22;32544;52.832;13.816;2023-08-08T02:02:01;24.90;49.00
46784;DHT22;32544;52.832;13.816;2023-08-08T02:03:03;24.90;49.00
46784;DHT22;32544;52.832;13.816;2023-08-08T02:04:03;24.90;49.00
46784;DHT22;32544;52.832;13.816;2023-08-08T02:05:04;24.90;49.00
46784;DHT22;32544;52.832;13.816;2023-08-08T02:06:05;24.90;49.00
46784;DHT22;32544;52.832;13.816;2023-08-08T02:07:06;24.90;49.00
46784;DHT22;32544;52.832;13.816;2023-08-08T02:08:06;24.90;49.00
46784;DHT22;32544;52.832;13.816;2023-08-08T02:09:09;24.90;49.00
46784;DHT22;32544;52.832;13.816;2023-08-08T02:10:09;24.90;49.00
46784;DHT22;32544;52.832;13.816;2023-08-08T02:11:10;24.90;49.00
46784;DHT22;32544;52.832;13.816;2023-08-08T02:12:10;24.90;49.00
46784;DHT22;32544;52.832;13.816;2023-08-08T02:13:11;24.90;48.90
46784;DHT22;32544;52.832;13.816;2023-08-08T02:14:11;24.90;49.00
46784;DHT22;32544;52.832;13.816;2023-08-08T02:15:12;24.90;49.00
46784;DHT22;32544;52.832;13.816;2023-08-08T02:16:13;24.90;49.00
46784;DHT22;32544;52.832;13.816;2023-08-08T02:17:13;24.90;49.00
46784;DHT22;32544;52.832;13.816;2023-08-08T02:18:14;24.90;49.00
46784;DHT22;32544;52.832;13.816;2023-08-08T02:19:14;24.90;49.10
46784;DHT22;32544;52.832;13.816;2023-08-08T02:20:15;24.90;49.00
46784;DHT22;32544;52.832;13.816;2023-08-08T02:21:16;24.90;49.10
46784;DHT22;32544;52.832;13.816;2023-08-08T02:22:17;24.90;49.70
46784;DHT22;32544;52.832;13.816;2023-08-08T02:23:17;24.90;49.10
46784;DHT22;32544;52.832;13.816;2023-08-08T02:24:18;24.90;49.10
46784;DHT22;32544;52.832;13.816;2023-08-08T02:25:19;24.90;49.10
46784;DHT22;32544;52.832;13.816;2023-08-08T02:26:20;24.90;49.10
46784;DHT22;32544;52.832;13.816;2023-08-08T02:27:20;24.90;49.10
46784;DHT22;32544;52.832;13.816;2023-08-08T02:28:21;24.90;49.10
46784;DHT22;32544;52.832;13.816;2023-08-08T02:29:21;24.90;49.10
46784;DHT22;32544;52.832;13.816;2023-08-08T02:30:22;24.90;49.20
46784;DHT22;32544;52.832;13.816;2023-08-08T02:31:22;24.90;49.20
46784;DHT22;32544;52.832;13.816;2023-08-08T02:32:25;24.90;49.10
46784;DHT22;32544;52.832;13.816;2023-08-08T02:33:28;24.90;49.10
46784;DHT22;32544;52.832;13.816;2023-08-08T02:34:28;24.90;49.10
46784;DHT22;32544;52.832;13.816;2023-08-08T02:35:30;24.90;49.10
46784;DHT22;32544;52.832;13.816;2023-08-08T02:36:31;24.90;49.10
46784;DHT22;32544;52.832;13.816;2023-08-08T02:37:31;24.90;49.10
46784;DHT22;32544;52.832;13.816;2023-08-08T02:38:32;24.90;49.20
46784;DHT22;32544;52.832;13.816;2023-08-08T02:39:32;24.90;49.20
46784;DHT22;32544;52.832;13.816;2023-08-08T02:40:33;24.90;49.10
46784;DHT22;32544;52.832;13.816;2023-08-08T02:41:34;24.90;49.10
46784;DHT22;32544;52.832;13.816;2023-08-08T02:42:35;24.90;49.10
46784;DHT22;32544;52.832;13.816;2023-08-08T02:43:35;24.90;49.20
46784;DHT22;32544;52.832;13.816;2023-08-08T02:44:36;24.90;49.20
46784;DHT22;32544;52.832;13.816;2023-08-08T02:45:37;24.90;49.10
46784;DHT22;32544;52.832;13.816;2023-08-08T02:46:37;24.90;49.20
46784;DHT22;32544;52.832;13.816;2023-08-08T02:47:38;24.90;49.20
46784;DHT22;32544;52.832;13.816;2023-08-08T02:48:39;24.90;49.10
46784;DHT22;32544;52.832;13.816;2023-08-08T02:49:39;24.90;49.20
46784;DHT22;32544;52.832;13.816;2023-08-08T02:50:41;24.90;49.20
46784;DHT22;32544;52.832;13.816;2023-08-08T02:51:41;24.90;49.80
46784;DHT22;32544;52.832;13.816;2023-08-08T02:52:42;24.90;49.20
46784;DHT22;32544;52.832;13.816;2023-08-08T02:53:43;24.90;49.20
46784;DHT22;32544;52.832;13.816;2023-08-08T02:54:44;24.90;49.30
46784;DHT22;32544;52.832;13.816;2023-08-08T02:55:44;24.90;49.20
46784;DHT22;32544;52.832;13.816;2023-08-08T02:56:45;24.90;49.20
46784;DHT22;32544;52.832;13.816;2023-08-08T02:57:46;24.90;49.20
46784;DHT22;32544;52.832;13.816;2023-08-08T02:58:47;24.90;49.20
46784;DHT22;32544;52.832;13.816;2023-08-08T02:59:47;24.90;49.20
46784;DHT22;32544;52.832;13.816;2023-08-08T03:00:48;24.90;49.30
46784;DHT22;32544;52.832;13.816;2023-08-08T03:01:51;24.90;49.30
46784;DHT22;32544;52.832;13.816;2023-08-08T03:02:52;24.90;49.30
46784;DHT22;32544;52.832;13.816;2023-08-08T03:03:53;24.90;49.20
46784;DHT22;32544;52.832;13.816;2023-08-08T03:04:55;24.90;49.20
46784;DHT22;32544;52.832;13.816;2023-08-08T03:05:58;24.90;49.20
46784;DHT22;32544;52.832;13.816;2023-08-08T03:06:59;24.90;49.20
46784;DHT22;32544;52.832;13.816;2023-08-08T03:08:05;24.90;49.30
46784;DHT22;32544;52.832;13.816;2023-08-08T03:09:07;24.90;49.30
46784;DHT22;32544;52.832;13.816;2023-08-08T03:10:07;24.90;49.20
46784;DHT22;32544;52.832;13.816;2023-08-08T03:11:09;24.90;49.30
46784;DHT22;32544;52.832;13.816;2023-08-08T03:12:09;24.90;49.30
46784;DHT22;32544;52.832;13.816;2023-08-08T03:13:11;24.90;49.30
46784;DHT22;32544;52.832;13.816;2023-08-08T03:14:13;24.90;49.30
46784;DHT22;32544;52.832;13.816;2023-08-08T03:15:13;24.90;49.30
46784;DHT22;32544;52.832;13.816;2023-08-08T03:16:14;24.90;49.30
46784;DHT22;32544;52.832;13.816;2023-08-08T03:17:15;24.90;49.30
46784;DHT22;32544;52.832;13.816;2023-08-08T03:18:16;24.90;49.30
46784;DHT22;32544;52.832;13.816;2023-08-08T03:19:16;24.90;49.30
46784;DHT22;32544;52.832;13.816;2023-08-08T03:20:17;24.90;49.30
46784;DHT22;32544;52.832;13.816;2023-08-08T03:21:17;24.90;49.30
46784;DHT22;32544;52.832;13.816;2023-08-08T03:22:18;24.90;49.30
46784;DHT22;32544;52.832;13.816;2023-08-08T03:23:19;24.90;49.30
46784;DHT22;32544;52.832;13.816;2023-08-08T03:24:20;24.90;49.30
46784;DHT22;32544;52.832;13.816;2023-08-08T03:25:21;24.90;49.30
46784;DHT22;32544;52.832;13.816;2023-08-08T03:26:22;24.90;49.30
46784;DHT22;32544;52.832;13.816;2023-08-08T03:27:22;24.90;49.30
46784;DHT22;32544;52.832;13.816;2023-08-08T03:28:26;24.90;49.30
46784;DHT22;32544;52.832;13.816;2023-08-08T03:29:28;24.90;49.30
46784;DHT22;32544;52.832;13.816;2023-08-08T03:30:31;24.90;49.30
46784;DHT22;32544;52.832;13.816;2023-08-08T03:31:32;24.90;49.90
46784;DHT22;32544;52.832;13.816;2023-08-08T03:32:35;24.90;49.30
46784;DHT22;32544;52.832;13.816;2023-08-08T03:33:36;24.90;49.30
46784;DHT22;32544;52.832;13.816;2023-08-08T03:34:38;24.90;49.30
46784;DHT22;32544;52.832;13.816;2023-08-08T03:35:39;24.90;49.30
46784;DHT22;32544;52.832;13.816;2023-08-08T03:36:40;24.90;49.30
46784;DHT22;32544;52.832;13.816;2023-08-08T03:37:41;24.80;49.30
46784;DHT22;32544;52.832;13.816;2023-08-08T03:38:42;24.90;49.30
46784;DHT22;32544;52.832;13.816;2023-08-08T03:39:46;24.90;49.30
46784;DHT22;32544;52.832;13.816;2023-08-08T03:40:47;24.90;49.30
46784;DHT22;32544;52.832;13.816;2023-08-08T03:41:48;24.90;49.30
46784;DHT22;32544;52.832;13.816;2023-08-08T03:42:48;24.90;49.30
46784;DHT22;32544;52.832;13.816;2023-08-08T03:43:49;24.90;49.30
46784;DHT22;32544;52.832;13.816;2023-08-08T03:44:50;24.80;49.30
46784;DHT22;32544;52.832;13.816;2023-08-08T03:45:51;24.80;49.30
46784;DHT22;32544;52.832;13.816;2023-08-08T03:46:51;24.90;49.30
46784;DHT22;32544;52.832;13.816;2023-08-08T03:47:52;24.90;49.30
46784;DHT22;32544;52.832;13.816;2023-08-08T03:48:54;24.90;49.30
46784;DHT22;32544;52.832;13.816;2023-08-08T03:49:55;24.90;49.30
46784;DHT22;32544;52.832;13.816;2023-08-08T03:50:57;24.80;49.30
46784;DHT22;32544;52.832;13.816;2023-08-08T03:51:58;24.80;49.30
46784;DHT22;32544;52.832;13.816;2023-08-08T03:52:58;24.90;49.30
46784;DHT22;32544;52.832;13.816;2023-08-08T03:53:59;24.80;49.30
46784;DHT22;32544;52.832;13.816;2023-08-08T03:55:00;24.90;49.40
46784;DHT22;32544;52.832;13.816;2023-08-08T03:56:01;24.80;49.30
46784;DHT22;32544;52.832;13.816;2023-08-08T03:57:02;24.80;49.30
46784;DHT22;32544;52.832;13.816;2023-08-08T03:58:03;24.80;49.30
46784;DHT22;32544;52.832;13.816;2023-08-08T03:59:03;24.90;49.30
46784;DHT22;32544;52.832;13.816;2023-08-08T04:00:04;24.80;49.30
46784;DHT22;32544;52.832;13.816;2023-08-08T04:01:13;24.80;49.30
46784;DHT22;32544;52.832;13.816;2023-08-08T04:02:14;24.80;49.30
46784;DHT22;32544;52.832;13.816;2023-08-08T04:03:16;24.80;49.30
46784;DHT22;32544;52.832;13.816;2023-08-08T04:04:17;24.80;49.30
46784;DHT22;32544;52.832;13.816;2023-08-08T04:05:17;24.80;49.30
46784;DHT22;32544;52.832;13.816;2023-08-08T04:06:18;24.80;49.30
46784;DHT22;32544;52.832;13.816;2023-08-08T04:07:18;24.80;49.30
46784;DHT22;32544;52.832;13.816;2023-08-08T04:08:19;24.80;49.30
46784;DHT22;32544;52.832;13.816;2023-08-08T04:09:19;24.80;49.30
46784;DHT22;32544;52.832;13.816;2023-08-08T04:10:20;24.80;49.30
46784;DHT22;32544;52.832;13.816;2023-08-08T04:11:21;24.80;49.30
46784;DHT22;32544;52.832;13.816;2023-08-08T04:12:22;24.80;49.30
46784;DHT22;32544;52.832;13.816;2023-08-08T04:13:23;24.80;49.30
46784;DHT22;32544;52.832;13.816;2023-08-08T04:14:23;24.80;49.40
46784;DHT22;32544;52.832;13.816;2023-08-08T04:15:24;24.80;49.40
46784;DHT22;32544;52.832;13.816;2023-08-08T04:16:24;24.80;49.40
46784;DHT22;32544;52.832;13.816;2023-08-08T04:17:25;24.80;49.40
46784;DHT22;32544;52.832;13.816;2023-08-08T04:18:25;24.80;49.40
46784;DHT22;32544;52.832;13.816;2023-08-08T04:19:26;24.80;49.40
46784;DHT22;32544;52.832;13.816;2023-08-08T04:20:26;24.90;49.50
46784;DHT22;32544;52.832;13.816;2023-08-08T04:21:27;24.80;49.40
46784;DHT22;32544;52.832;13.816;2023-08-08T04:22:29;24.80;49.50
46784;DHT22;32544;52.832;13.816;2023-08-08T04:23:29;24.80;49.50
46784;DHT22;32544;52.832;13.816;2023-08-08T04:24:30;24.80;49.50
46784;DHT22;32544;52.832;13.816;2023-08-08T04:25:30;24.80;49.50
46784;DHT22;32544;52.832;13.816;2023-08-08T04:26:31;24.80;49.50
46784;DHT22;32544;52.832;13.816;2023-08-08T04:27:31;24.80;49.40
46784;DHT22;32544;52.832;13.816;2023-08-08T04:28:32;24.80;49.40
46784;DHT22;32544;52.832;13.816;2023-08-08T04:29:33;24.80;49.40
46784;DHT22;32544;52.832;13.816;2023-08-08T04:30:34;24.80;49.50
46784;DHT22;32544;52.832;13.816;2023-08-08T04:31:35;24.80;49.50
46784;DHT22;32544;52.832;13.816;2023-08-08T04:32:36;24.80;49.40
46784;DHT22;32544;52.832;13.816;2023-08-08T04:33:36;24.80;49.40
46784;DHT22;32544;52.832;13.816;2023-08-08T04:34:37;24.80;49.40
46784;DHT22;32544;52.832;13.816;2023-08-08T04:35:37;24.80;49.40
46784;DHT22;32544;52.832;13.816;2023-08-08T04:36:38;24.80;49.40
46784;DHT22;32544;52.832;13.816;2023-08-08T04:37:39;24.80;49.40
46784;DHT22;32544;52.832;13.816;2023-08-08T04:38:40;24.80;49.40
46784;DHT22;32544;52.832;13.816;2023-08-08T04:39:40;24.80;49.50
46784;DHT22;32544;52.832;13.816;2023-08-08T04:40:41;24.80;49.50
46784;DHT22;32544;52.832;13.816;2023-08-08T04:41:42;24.80;49.50
46784;DHT22;32544;52.832;13.816;2023-08-08T04:42:42;24.80;49.50
46784;DHT22;32544;52.832;13.816;2023-08-08T04:43:43;24.90;49.50
46784;DHT22;32544;52.832;13.816;2023-08-08T04:44:43;24.80;49.50
46784;DHT22;32544;52.832;13.816;2023-08-08T04:45:44;24.80;50.10
46784;DHT22;32544;52.832;13.816;2023-08-08T04:46:44;24.80;49.50
46784;DHT22;32544;52.832;13.816;2023-08-08T04:47:45;24.80;49.50
46784;DHT22;32544;52.832;13.816;2023-08-08T04:48:46;24.80;49.50
46784;DHT22;32544;52.832;13.816;2023-08-08T04:49:46;24.90;49.50
46784;DHT22;32544;52.832;13.816;2023-08-08T04:50:47;24.80;49.50
46784;DHT22;32544;52.832;13.816;2023-08-08T04:51:47;24.80;49.50
46784;DHT22;32544;52.832;13.816;2023-08-08T04:52:48;24.80;49.50
46784;DHT22;32544;52.832;13.816;2023-08-08T04:53:49;24.80;49.50
46784;DHT22;32544;52.832;13.816;2023-08-08T04:54:49;24.80;49.50
46784;DHT22;32544;52.832;13.816;2023-08-08T04:55:50;24.80;49.50
46784;DHT22;32544;52.832;13.816;2023-08-08T04:56:50;24.80;49.50
46784;DHT22;32544;52.832;13.816;2023-08-08T04:57:51;24.80;49.50
46784;DHT22;32544;52.832;13.816;2023-08-08T04:58:51;24.80;49.50
46784;DHT22;32544;52.832;13.816;2023-08-08T04:59:52;24.80;49.50
46784;DHT22;32544;52.832;13.816;2023-08-08T05:00:53;24.80;50.20
46784;DHT22;32544;52.832;13.816;2023-08-08T05:01:55;24.80;49.50
46784;DHT22;32544;52.832;13.816;2023-08-08T05:02:55;24.80;49.50
46784;DHT22;32544;52.832;13.816;2023-08-08T05:03:56;24.80;49.50
46784;DHT22;32544;52.832;13.816;2023-08-08T05:04:57;24.80;49.60
46784;DHT22;32544;52.832;13.816;2023-08-08T05:05:57;24.90;49.60
46784;DHT22;32544;52.832;13.816;2023-08-08T05:06:59;24.80;49.60
46784;DHT22;32544;52.832;13.816;2023-08-08T05:07:59;24.80;49.50
46784;DHT22;32544;52.832;13.816;2023-08-08T05:09:00;24.80;49.50
46784;DHT22;32544;52.832;13.816;2023-08-08T05:10:01;24.80;49.50
46784;DHT22;32544;52.832;13.816;2023-08-08T05:11:03;24.80;49.60
46784;DHT22;32544;52.832;13.816;2023-08-08T05:12:03;24.80;49.50
46784;DHT22;32544;52.832;13.816;2023-08-08T05:13:04;24.80;49.50
46784;DHT22;32544;52.832;13.816;2023-08-08T05:14:05;24.80;49.50
46784;DHT22;32544;52.832;13.816;2023-08-08T05:15:05;24.80;49.50
46784;DHT22;32544;52.832;13.816;2023-08-08T05:16:06;24.80;49.60
46784;DHT22;32544;52.832;13.816;2023-08-08T05:17:07;24.80;49.60
46784;DHT22;32544;52.832;13.816;2023-08-08T05:18:07;24.80;49.60
46784;DHT22;32544;52.832;13.816;2023-08-08T05:19:08;24.80;49.60
46784;DHT22;32544;52.832;13.816;2023-08-08T05:20:09;24.80;49.60
46784;DHT22;32544;52.832;13.816;2023-08-08T05:21:10;24.80;49.60
46784;DHT22;32544;52.832;13.816;2023-08-08T05:22:11;24.80;49.60
46784;DHT22;32544;52.832;13.816;2023-08-08T05:23:11;24.80;49.60
46784;DHT22;32544;52.832;13.816;2023-08-08T05:24:12;24.80;49.50
46784;DHT22;32544;52.832;13.816;2023-08-08T05:25:13;24.80;49.60
46784;DHT22;32544;52.832;13.816;2023-08-08T05:26:14;24.80;49.60
46784;DHT22;32544;52.832;13.816;2023-08-08T05:27:15;24.80;49.60
46784;DHT22;32544;52.832;13.816;2023-08-08T05:28:15;24.80;49.60
46784;DHT22;32544;52.832;13.816;2023-08-08T05:29:16;24.80;49.60
46784;DHT22;32544;52.832;13.816;2023-08-08T05:30:16;24.80;49.60
46784;DHT22;32544;52.832;13.816;2023-08-08T05:31:17;24.80;49.60
46784;DHT22;32544;52.832;13.816;2023-08-08T05:32:17;24.80;49.60
46784;DHT22;32544;52.832;13.816;2023-08-08T05:33:18;24.80;49.60
46784;DHT22;32544;52.832;13.816;2023-08-08T05:34:19;24.80;49.60
46784;DHT22;32544;52.832;13.816;2023-08-08T05:35:19;24.80;49.60
46784;DHT22;32544;52.832;13.816;2023-08-08T05:36:20;24.80;49.60
46784;DHT22;32544;52.832;13.816;2023-08-08T05:37:20;24.80;49.60
46784;DHT22;32544;52.832;13.816;2023-08-08T05:38:21;24.80;49.60
46784;DHT22;32544;52.832;13.816;2023-08-08T05:39:21;24.80;49.60
46784;DHT22;32544;52.832;13.816;2023-08-08T05:40:22;24.80;49.60
46784;DHT22;32544;52.832;13.816;2023-08-08T05:41:23;24.80;49.60
46784;DHT22;32544;52.832;13.816;2023-08-08T05:42:23;24.80;49.60
46784;DHT22;32544;52.832;13.816;2023-08-08T05:43:24;24.80;49.60
46784;DHT22;32544;52.832;13.816;2023-08-08T05:44:24;24.80;49.70
46784;DHT22;32544;52.832;13.816;2023-08-08T05:45:25;24.80;49.60
46784;DHT22;32544;52.832;13.816;2023-08-08T05:46:25;24.80;49.70
46784;DHT22;32544;52.832;13.816;2023-08-08T05:47:26;24.80;49.70
46784;DHT22;32544;52.832;13.816;2023-08-08T05:48:26;24.80;49.60
46784;DHT22;32544;52.832;13.816;2023-08-08T05:49:27;24.80;49.70
46784;DHT22;32544;52.832;13.816;2023-08-08T05:50:28;24.80;49.70
46784;DHT22;32544;52.832;13.816;2023-08-08T05:51:28;24.80;49.70
46784;DHT22;32544;52.832;13.816;2023-08-08T05:52:29;24.80;49.70
46784;DHT22;32544;52.832;13.816;2023-08-08T05:53:30;24.80;49.70
46784;DHT22;32544;52.832;13.816;2023-08-08T05:54:31;24.80;49.70
46784;DHT22;32544;52.832;13.816;2023-08-08T05:55:31;24.80;49.70
46784;DHT22;32544;52.832;13.816;2023-08-08T05:56:35;24.80;49.70
46784;DHT22;32544;52.832;13.816;2023-08-08T05:57:36;24.80;49.70
46784;DHT22;32544;52.832;13.816;2023-08-08T05:58:38;24.80;49.70
46784;DHT22;32544;52.832;13.816;2023-08-08T05:59:38;24.80;49.70
46784;DHT22;32544;52.832;13.816;2023-08-08T06:00:39;24.80;49.70
46784;DHT22;32544;52.832;13.816;2023-08-08T06:01:40;24.80;49.70
46784;DHT22;32544;52.832;13.816;2023-08-08T06:02:41;24.80;49.70
46784;DHT22;32544;52.832;13.816;2023-08-08T06:03:41;24.80;49.70
46784;DHT22;32544;52.832;13.816;2023-08-08T06:04:42;24.80;49.80
46784;DHT22;32544;52.832;13.816;2023-08-08T06:05:43;24.80;49.80
46784;DHT22;32544;52.832;13.816;2023-08-08T06:06:44;24.80;49.70
46784;DHT22;32544;52.832;13.816;2023-08-08T06:07:45;24.90;49.80
46784;DHT22;32544;52.832;13.816;2023-08-08T06:08:46;24.80;49.80
46784;DHT22;32544;52.832;13.816;2023-08-08T06:09:47;24.80;49.80
46784;DHT22;32544;52.832;13.816;2023-08-08T06:10:47;24.80;49.80
46784;DHT22;32544;52.832;13.816;2023-08-08T06:11:48;24.80;49.80
46784;DHT22;32544;52.832;13.816;2023-08-08T06:12:48;24.80;49.80
46784;DHT22;32544;52.832;13.816;2023-08-08T06:13:49;24.80;49.70
46784;DHT22;32544;52.832;13.816;2023-08-08T06:14:50;24.80;49.80
46784;DHT22;32544;52.832;13.816;2023-08-08T06:15:50;24.80;49.60
46784;DHT22;32544;52.832;13.816;2023-08-08T06:16:51;24.80;49.50
46784;DHT22;32544;52.832;13.816;2023-08-08T06:17:51;24.80;49.50
46784;DHT22;32544;52.832;13.816;2023-08-08T06:18:52;24.80;49.40
46784;DHT22;32544;52.832;13.816;2023-08-08T06:19:53;24.80;49.30
46784;DHT22;32544;52.832;13.816;2023-08-08T06:20:54;24.80;49.40